createdAt,value
2018-12-03T00:00:10.765Z,8.80
2018-12-03T00:02:38.537Z,8.70
2018-12-03T00:05:06.476Z,8.70
2018-12-03T00:07:34.190Z,8.70
2018-12-03T00:10:01.822Z,8.60
2018-12-03T00:12:29.856Z,8.60
2018-12-03T00:14:57.545Z,8.70
2018-12-03T00:17:25.588Z,8.70
2018-12-03T00:19:53.198Z,8.80
2018-12-03T00:22:20.806Z,8.80
2018-12-03T00:24:48.464Z,8.90
2018-12-03T00:27:16.285Z,9.00
2018-12-03T00:29:43.905Z,8.80
2018-12-03T00:32:11.709Z,8.80
2018-12-03T00:34:39.557Z,8.80
2018-12-03T00:37:07.293Z,8.80
2018-12-03T00:39:35.826Z,8.60
2018-12-03T00:42:03.601Z,8.60
2018-12-03T00:44:31.347Z,8.50
2018-12-03T00:46:58.961Z,8.50
2018-12-03T00:49:26.905Z,8.00
2018-12-03T00:51:54.566Z,7.80
2018-12-03T00:54:22.399Z,7.80
2018-12-03T00:56:50.211Z,7.70
2018-12-03T00:59:17.874Z,7.80
2018-12-03T01:01:45.584Z,7.80
2018-12-03T01:04:13.364Z,7.70
2018-12-03T01:06:41.080Z,7.60
2018-12-03T01:09:09.020Z,7.50
2018-12-03T01:11:37.094Z,7.60
2018-12-03T01:14:04.854Z,7.80
2018-12-03T01:16:32.561Z,7.90
2018-12-03T01:19:00.325Z,7.80
2018-12-03T01:21:28.035Z,7.80
2018-12-03T01:23:55.940Z,7.80
2018-12-03T01:26:23.816Z,7.70
2018-12-03T01:28:51.585Z,7.60
2018-12-03T01:31:19.481Z,7.60
2018-12-03T01:33:47.247Z,7.70
2018-12-03T01:36:15.052Z,7.70
2018-12-03T01:38:42.946Z,7.90
2018-12-03T01:41:10.823Z,7.80
2018-12-03T01:43:38.553Z,7.90
2018-12-03T01:46:06.305Z,8.00
2018-12-03T01:48:34.107Z,7.60
2018-12-03T01:51:01.956Z,7.60
2018-12-03T01:53:29.663Z,7.70
2018-12-03T01:55:57.362Z,7.70
2018-12-03T01:58:25.131Z,7.80
2018-12-03T02:00:53.857Z,8.00
2018-12-03T02:03:21.561Z,7.90
2018-12-03T02:05:49.243Z,7.80
2018-12-03T02:08:16.953Z,7.70
2018-12-03T02:10:44.961Z,7.70
2018-12-03T02:13:12.737Z,7.60
2018-12-03T02:15:40.469Z,7.70
2018-12-03T02:18:08.302Z,7.50
2018-12-03T02:20:36.252Z,7.50
2018-12-03T02:23:04.102Z,7.50
2018-12-03T02:25:31.901Z,7.50
2018-12-03T02:27:59.617Z,7.50
2018-12-03T02:30:27.353Z,7.50
2018-12-03T02:32:55.107Z,7.40
2018-12-03T02:35:22.843Z,7.30
2018-12-03T02:37:50.520Z,7.30
2018-12-03T02:40:18.487Z,7.40
2018-12-03T02:42:46.273Z,7.60
2018-12-03T02:45:14.460Z,7.70
2018-12-03T02:47:42.295Z,7.80
2018-12-03T02:50:11.989Z,7.90
2018-12-03T02:52:40.125Z,7.90
2018-12-03T02:55:09.110Z,7.90
2018-12-03T02:57:36.980Z,8.10
2018-12-03T03:00:08.411Z,8.10
2018-12-03T03:02:36.162Z,8.10
2018-12-03T03:05:04.886Z,8.20
2018-12-03T03:07:32.705Z,8.20
2018-12-03T03:10:00.491Z,8.30
2018-12-03T03:12:28.268Z,8.20
2018-12-03T03:14:56.121Z,8.10
2018-12-03T03:17:23.995Z,8.30
2018-12-03T03:19:51.787Z,8.50
2018-12-03T03:22:19.502Z,8.60
2018-12-03T03:24:47.148Z,8.60
2018-12-03T03:27:15.171Z,8.60
2018-12-03T03:29:43.124Z,8.60
2018-12-03T03:32:11.105Z,8.50
2018-12-03T03:34:39.009Z,8.50
2018-12-03T03:37:07.052Z,8.60
2018-12-03T03:39:35.168Z,8.60
2018-12-03T03:42:03.328Z,8.60
2018-12-03T03:44:31.078Z,8.60
2018-12-03T03:46:59.040Z,8.60
2018-12-03T03:49:27.075Z,8.70
2018-12-03T03:51:55.152Z,8.60
2018-12-03T03:54:25.512Z,8.30
2018-12-03T03:56:51.145Z,8.20
2018-12-03T03:59:19.152Z,8.20
2018-12-03T04:01:46.964Z,8.30
2018-12-03T04:04:14.989Z,8.40
2018-12-03T04:06:42.866Z,8.40
2018-12-03T04:09:10.699Z,8.40
2018-12-03T04:11:38.360Z,8.10
2018-12-03T04:14:06.426Z,8.10
2018-12-03T04:16:34.230Z,8.20
2018-12-03T04:19:02.134Z,8.20
2018-12-03T04:21:29.943Z,8.20
2018-12-03T04:23:57.791Z,8.20
2018-12-03T04:26:26.029Z,8.30
2018-12-03T04:28:53.855Z,8.20
2018-12-03T04:31:22.082Z,8.20
2018-12-03T04:33:50.075Z,8.30
2018-12-03T04:36:18.244Z,8.30
2018-12-03T04:38:46.292Z,8.20
2018-12-03T04:41:14.157Z,8.30
2018-12-03T04:43:42.701Z,8.20
2018-12-03T04:46:10.524Z,8.20
2018-12-03T04:48:38.327Z,8.30
2018-12-03T04:51:06.153Z,8.40
2018-12-03T04:53:33.998Z,8.40
2018-12-03T04:56:01.994Z,8.50
2018-12-03T04:58:29.857Z,8.50
2018-12-03T05:00:57.709Z,8.60
2018-12-03T05:03:25.808Z,8.50
2018-12-03T05:05:53.610Z,8.50
2018-12-03T05:08:21.507Z,8.60
2018-12-03T05:10:49.241Z,8.60
2018-12-03T05:13:17.091Z,8.70
2018-12-03T05:15:44.897Z,8.60
2018-12-03T05:18:12.922Z,8.70
2018-12-03T05:20:41.095Z,8.70
2018-12-03T05:23:08.930Z,8.80
2018-12-03T05:25:51.846Z,8.90
2018-12-03T05:28:20.187Z,8.90
2018-12-03T05:30:47.975Z,8.90
2018-12-03T05:33:15.836Z,8.90
2018-12-03T05:35:43.729Z,9.00
2018-12-03T05:38:11.583Z,9.00
2018-12-03T05:40:39.627Z,9.00
2018-12-03T05:43:07.583Z,8.90
2018-12-03T05:45:35.541Z,9.00
2018-12-03T05:48:03.224Z,9.00
2018-12-03T05:50:30.975Z,9.00
2018-12-03T05:52:58.933Z,8.90
2018-12-03T05:55:26.617Z,8.80
2018-12-03T05:57:54.411Z,8.80
2018-12-03T06:00:23.151Z,8.80
2018-12-03T06:02:51.122Z,8.60
2018-12-03T06:05:19.018Z,8.50
2018-12-03T06:07:46.868Z,8.60
2018-12-03T06:10:17.306Z,8.60
2018-12-03T06:12:45.387Z,8.70
2018-12-03T06:15:14.479Z,8.70
2018-12-03T06:17:42.383Z,8.70
2018-12-03T06:20:15.324Z,8.70
2018-12-03T06:22:43.223Z,8.90
2018-12-03T06:25:13.453Z,8.70
2018-12-03T06:27:41.509Z,8.70
2018-12-03T06:30:16.185Z,8.70
2018-12-03T06:32:44.035Z,8.70
2018-12-03T06:35:12.920Z,8.70
2018-12-03T06:37:40.989Z,8.70
2018-12-03T06:40:13.060Z,8.80
2018-12-03T06:42:41.124Z,9.00
2018-12-03T06:45:11.960Z,8.90
2018-12-03T06:47:43.087Z,9.00
2018-12-03T06:50:11.239Z,9.00
2018-12-03T06:52:39.293Z,9.10
2018-12-03T06:55:08.693Z,9.00
2018-12-03T06:57:36.883Z,9.00
2018-12-03T07:00:11.230Z,9.00
2018-12-03T07:02:39.237Z,9.10
2018-12-03T07:05:08.419Z,9.00
2018-12-03T07:07:36.864Z,9.10
2018-12-03T07:10:10.608Z,9.00
2018-12-03T07:12:38.544Z,9.00
2018-12-03T07:15:08.704Z,9.00
2018-12-03T07:17:36.521Z,9.00
2018-12-03T07:20:09.594Z,9.10
2018-12-03T07:22:37.706Z,9.00
2018-12-03T07:25:07.100Z,9.00
2018-12-03T07:27:35.316Z,8.90
2018-12-03T07:30:04.060Z,8.90
2018-12-03T07:32:32.092Z,8.90
2018-12-03T07:34:59.895Z,8.90
2018-12-03T07:37:27.878Z,8.90
2018-12-03T07:39:55.734Z,8.90
2018-12-03T07:42:23.741Z,8.90
2018-12-03T07:44:51.958Z,8.80
2018-12-03T07:47:19.974Z,8.80
2018-12-03T07:49:47.783Z,8.90
2018-12-03T07:52:15.568Z,8.90
2018-12-03T07:54:43.693Z,9.00
2018-12-03T07:57:11.459Z,9.00
2018-12-03T07:59:39.407Z,9.00
2018-12-03T08:02:07.631Z,9.00
2018-12-03T08:04:35.526Z,9.00
2018-12-03T08:07:03.406Z,9.10
2018-12-03T08:09:31.423Z,9.00
2018-12-03T08:11:59.217Z,9.10
2018-12-03T08:14:27.094Z,9.10
2018-12-03T08:16:54.905Z,9.00
2018-12-03T08:19:22.601Z,8.80
2018-12-03T08:21:50.237Z,8.70
2018-12-03T08:24:18.054Z,8.60
2018-12-03T08:26:45.782Z,8.60
2018-12-03T08:29:13.551Z,8.60
2018-12-03T08:31:41.374Z,8.70
2018-12-03T08:34:09.191Z,8.80
2018-12-03T08:36:36.885Z,8.80
2018-12-03T08:39:07.956Z,8.90
2018-12-03T08:41:35.689Z,8.90
2018-12-03T08:44:03.513Z,8.80
2018-12-03T08:46:31.293Z,8.80
2018-12-03T08:48:59.222Z,8.80
2018-12-03T08:51:26.851Z,8.90
2018-12-03T08:53:54.589Z,8.90
2018-12-03T08:56:22.322Z,8.90
2018-12-03T08:58:50.000Z,8.80
2018-12-03T09:01:19.588Z,9.00
2018-12-03T09:03:53.410Z,9.00
2018-12-03T09:06:21.140Z,9.00
2018-12-03T09:08:49.974Z,9.10
2018-12-03T09:11:19.182Z,9.20
2018-12-03T09:13:47.080Z,9.20
2018-12-03T09:16:14.789Z,9.20
2018-12-03T09:18:42.419Z,9.20
2018-12-03T09:21:12.490Z,9.30
2018-12-03T09:23:41.421Z,9.40
2018-12-03T09:26:09.717Z,9.60
2018-12-03T09:28:37.509Z,9.50
2018-12-03T09:31:05.496Z,9.60
2018-12-03T09:33:33.336Z,9.60
2018-12-03T09:36:01.050Z,9.60
2018-12-03T09:38:28.969Z,9.60
2018-12-03T09:40:59.058Z,9.40
2018-12-03T09:43:27.457Z,9.50
2018-12-03T09:45:55.490Z,9.50
2018-12-03T09:48:23.273Z,9.60
2018-12-03T09:50:50.967Z,9.70
2018-12-03T09:53:18.834Z,9.80
2018-12-03T09:55:46.534Z,9.80
2018-12-03T09:58:16.697Z,9.80
2018-12-03T10:00:44.474Z,9.90
2018-12-03T10:03:29.520Z,10.00
2018-12-03T10:05:58.983Z,10.10
2018-12-03T10:08:29.015Z,10.20
2018-12-03T10:10:57.920Z,10.20
2018-12-03T10:13:26.745Z,10.30
2018-12-03T10:15:54.409Z,10.30
2018-12-03T10:18:22.218Z,10.40
2018-12-03T10:20:51.849Z,10.40
2018-12-03T10:23:19.765Z,10.50
2018-12-03T10:25:49.458Z,10.50
2018-12-03T10:28:17.164Z,10.50
2018-12-03T10:30:44.946Z,10.40
2018-12-03T10:33:17.976Z,10.40
2018-12-03T10:35:45.960Z,10.40
2018-12-03T10:38:24.495Z,10.40
2018-12-03T10:40:57.294Z,10.50
2018-12-03T10:43:25.004Z,10.50
2018-12-03T10:45:52.834Z,10.50
2018-12-03T10:48:20.722Z,10.50
2018-12-03T10:50:48.529Z,10.50
2018-12-03T10:53:18.453Z,10.60
2018-12-03T10:55:46.427Z,10.70
2018-12-03T10:58:14.707Z,10.70
2018-12-03T11:00:48.372Z,10.80
2018-12-03T11:03:22.004Z,10.90
2018-12-03T11:05:55.617Z,10.80
2018-12-03T11:08:23.806Z,10.60
2018-12-03T11:10:53.318Z,10.60
2018-12-03T11:13:21.292Z,10.60
2018-12-03T11:15:49.216Z,10.60
2018-12-03T11:18:17.211Z,10.70
2018-12-03T11:20:45.133Z,10.80
2018-12-03T11:23:18.278Z,10.90
2018-12-03T11:25:46.189Z,10.90
2018-12-03T11:28:15.187Z,10.90
2018-12-03T11:30:51.226Z,11.00
2018-12-03T11:33:24.493Z,11.00
2018-12-03T11:35:54.411Z,11.00
2018-12-03T11:38:28.390Z,11.00
2018-12-03T11:40:56.709Z,11.10
2018-12-03T11:43:26.203Z,11.00
2018-12-03T11:45:54.358Z,10.80
2018-12-03T11:48:22.337Z,10.90
2018-12-03T11:50:50.310Z,10.80
2018-12-03T11:53:18.468Z,10.70
2018-12-03T11:55:46.203Z,10.50
2018-12-03T11:58:13.879Z,10.50
2018-12-03T12:00:41.653Z,10.40
2018-12-03T12:03:09.603Z,10.30
2018-12-03T12:05:37.540Z,10.30
2018-12-03T12:08:05.585Z,10.30
2018-12-03T12:10:33.610Z,10.40
2018-12-03T12:13:01.686Z,10.50
2018-12-03T12:15:29.529Z,10.60
2018-12-03T12:17:57.570Z,10.80
2018-12-03T12:20:25.493Z,11.00
2018-12-03T12:22:53.315Z,11.20
2018-12-03T12:25:21.161Z,11.20
2018-12-03T12:27:52.027Z,11.20
2018-12-03T12:30:19.900Z,10.90
2018-12-03T12:32:47.553Z,10.90
2018-12-03T12:35:15.370Z,10.90
2018-12-03T12:37:43.155Z,10.90
2018-12-03T12:40:12.351Z,10.90
2018-12-03T12:42:40.919Z,10.90
2018-12-03T12:45:18.150Z,10.80
2018-12-03T12:47:46.017Z,10.80
2018-12-03T12:50:16.073Z,10.80
2018-12-03T12:52:43.921Z,10.80
2018-12-03T12:55:11.616Z,10.90
2018-12-03T12:57:39.397Z,11.00
2018-12-03T13:00:11.590Z,11.20
2018-12-03T13:02:39.333Z,11.20
2018-12-03T13:05:07.053Z,11.30
2018-12-03T13:07:34.811Z,11.40
2018-12-03T13:10:02.585Z,11.30
2018-12-03T13:12:30.389Z,11.20
2018-12-03T13:14:58.118Z,11.10
2018-12-03T13:17:25.901Z,11.10
2018-12-03T13:19:53.604Z,11.10
2018-12-03T13:22:33.529Z,11.00
2018-12-03T13:25:01.278Z,11.00
2018-12-03T13:27:29.182Z,11.00
2018-12-03T13:29:57.590Z,11.00
2018-12-03T13:32:25.315Z,11.10
2018-12-03T13:34:53.055Z,11.10
2018-12-03T13:37:20.777Z,11.20
2018-12-03T13:39:48.775Z,11.30
2018-12-03T13:42:16.675Z,11.20
2018-12-03T13:44:44.379Z,11.20
2018-12-03T13:47:12.265Z,11.20
2018-12-03T13:49:39.936Z,11.30
2018-12-03T13:52:07.741Z,11.30
2018-12-03T13:54:35.609Z,11.30
2018-12-03T13:57:03.465Z,11.30
2018-12-03T13:59:31.401Z,11.10
2018-12-03T14:01:59.173Z,11.10
2018-12-03T14:04:26.905Z,11.10
2018-12-03T14:07:14.154Z,11.10
2018-12-03T14:10:07.649Z,11.00
2018-12-03T14:12:42.120Z,11.00
2018-12-03T14:15:31.477Z,11.00
2018-12-03T14:18:16.663Z,11.00
2018-12-03T14:20:47.248Z,11.00
2018-12-03T14:23:17.864Z,10.90
2018-12-03T14:25:45.677Z,11.00
2018-12-03T14:28:13.589Z,10.90
2018-12-03T14:30:41.307Z,10.90
2018-12-03T14:33:09.075Z,11.00
2018-12-03T14:35:36.905Z,11.00
2018-12-03T14:38:19.456Z,11.00
2018-12-03T14:40:47.476Z,11.00
2018-12-03T14:43:15.175Z,11.00
2018-12-03T14:45:42.866Z,11.00
2018-12-03T14:48:10.586Z,11.00
2018-12-03T14:50:38.574Z,11.00
2018-12-03T14:53:07.861Z,11.00
2018-12-03T14:55:34.504Z,11.00
2018-12-03T14:58:02.453Z,11.00
2018-12-03T15:00:30.214Z,11.10
2018-12-03T15:02:58.053Z,11.00
2018-12-03T15:05:25.850Z,11.10
2018-12-03T15:07:53.686Z,11.10
2018-12-03T15:10:21.566Z,11.00
2018-12-03T15:12:49.230Z,11.00
2018-12-03T15:15:16.932Z,11.00
2018-12-03T15:17:45.018Z,11.00
2018-12-03T15:20:12.681Z,11.00
2018-12-03T15:22:40.521Z,11.00
2018-12-03T15:25:10.453Z,11.00
2018-12-03T15:27:38.204Z,11.00
2018-12-03T15:30:07.599Z,10.90
2018-12-03T15:32:35.498Z,10.90
2018-12-03T15:35:03.717Z,10.80
2018-12-03T15:37:31.413Z,10.80
2018-12-03T15:39:59.125Z,10.80
2018-12-03T15:42:26.817Z,10.80
2018-12-03T15:44:54.814Z,10.70
2018-12-03T15:47:22.798Z,10.80
2018-12-03T15:49:50.755Z,10.80
2018-12-03T15:52:18.745Z,10.80
2018-12-03T15:54:46.931Z,10.70
2018-12-03T15:57:14.860Z,10.70
2018-12-03T15:59:43.307Z,10.70
2018-12-03T16:02:11.912Z,10.60
2018-12-03T16:04:39.883Z,10.60
2018-12-03T16:07:08.193Z,10.60
2018-12-03T16:09:36.582Z,10.50
2018-12-03T16:12:04.849Z,10.60
2018-12-03T16:14:33.241Z,10.50
2018-12-03T16:17:01.632Z,10.50
2018-12-03T16:19:29.784Z,10.60
2018-12-03T16:21:58.031Z,10.50
2018-12-03T16:24:26.421Z,10.50
2018-12-03T16:26:54.908Z,10.40
2018-12-03T16:29:23.025Z,10.50
2018-12-03T16:31:51.457Z,10.50
2018-12-03T16:34:19.907Z,10.50
2018-12-03T16:36:49.051Z,10.40
2018-12-03T16:39:17.401Z,10.40
2018-12-03T16:41:46.185Z,10.40
2018-12-03T16:44:14.943Z,10.40
2018-12-03T16:46:43.699Z,10.40
2018-12-03T16:49:12.382Z,10.50
2018-12-03T16:51:40.959Z,10.50
2018-12-03T16:54:09.569Z,10.50
2018-12-03T16:56:38.031Z,10.40
2018-12-03T16:59:07.298Z,10.50
2018-12-03T17:01:35.891Z,10.40
2018-12-03T17:04:04.874Z,10.50
2018-12-03T17:06:33.642Z,10.40
2018-12-03T17:09:02.450Z,10.30
2018-12-03T17:11:31.097Z,10.30
2018-12-03T17:13:59.750Z,10.30
2018-12-03T17:16:28.499Z,10.30
2018-12-03T17:18:57.127Z,10.30
2018-12-03T17:22:36.367Z,10.40
2018-12-03T17:25:09.867Z,10.20
2018-12-03T17:27:38.806Z,10.10
2018-12-03T17:30:08.484Z,10.20
2018-12-03T17:32:37.268Z,10.20
2018-12-03T17:35:06.791Z,10.30
2018-12-03T17:37:36.580Z,10.30
2018-12-03T17:40:08.590Z,10.40
2018-12-03T17:43:10.412Z,10.30
2018-12-03T17:45:40.343Z,10.30
2018-12-03T17:48:10.068Z,10.40
2018-12-03T17:50:39.826Z,10.30
2018-12-03T17:53:09.250Z,10.30
2018-12-03T17:55:39.010Z,10.30
2018-12-03T17:58:08.879Z,10.30
2018-12-03T18:00:38.242Z,10.30
2018-12-03T18:03:08.020Z,10.30
2018-12-03T18:05:38.334Z,10.20
2018-12-03T18:08:08.503Z,10.30
2018-12-03T18:10:37.901Z,10.30
2018-12-03T18:13:07.607Z,10.40
2018-12-03T18:15:37.456Z,10.50
2018-12-03T18:18:06.960Z,10.60
2018-12-03T18:20:38.289Z,10.50
2018-12-03T18:23:07.586Z,10.40
2018-12-03T18:25:37.074Z,10.50
2018-12-03T18:28:07.557Z,10.40
2018-12-03T18:30:37.055Z,10.40
2018-12-03T18:33:06.562Z,10.50
2018-12-03T18:35:36.424Z,10.40
2018-12-03T18:38:05.990Z,10.40
2018-12-03T18:40:35.710Z,10.40
2018-12-03T18:43:05.076Z,10.50
2018-12-03T18:45:35.032Z,10.50
2018-12-03T18:48:04.976Z,10.50
2018-12-03T18:50:36.733Z,10.40
2018-12-03T18:53:16.891Z,10.40
2018-12-03T18:55:46.381Z,10.50
2018-12-03T18:58:19.419Z,10.40
2018-12-03T19:00:48.993Z,10.40
2018-12-03T19:03:20.407Z,10.40
2018-12-03T19:05:50.942Z,10.40
2018-12-03T19:08:20.650Z,10.40
2018-12-03T19:10:50.230Z,10.30
2018-12-03T19:13:20.517Z,10.40
2018-12-03T19:15:50.005Z,10.40
2018-12-03T19:18:19.905Z,10.40
2018-12-03T19:20:49.556Z,10.40
2018-12-03T19:23:18.897Z,10.40
2018-12-03T19:25:48.304Z,10.40
2018-12-03T19:28:17.663Z,10.40
2018-12-03T19:30:47.125Z,10.50
2018-12-03T19:33:16.783Z,10.50
2018-12-03T19:35:46.606Z,10.50
2018-12-03T19:38:16.038Z,10.40
2018-12-03T19:40:45.354Z,10.40
2018-12-03T19:43:15.001Z,10.70
2018-12-03T19:45:44.488Z,10.60
2018-12-03T19:48:13.933Z,10.50
2018-12-03T19:50:44.063Z,10.40
2018-12-03T19:53:16.080Z,10.50
2018-12-03T19:55:47.385Z,10.50
2018-12-03T19:58:23.239Z,10.50
2018-12-03T20:00:52.776Z,10.50
2018-12-03T20:03:23.254Z,10.50
2018-12-03T20:05:54.768Z,10.50
2018-12-03T20:08:25.495Z,10.40
2018-12-03T20:10:55.487Z,10.30
2018-12-03T20:13:25.265Z,10.30
2018-12-03T20:15:56.045Z,10.30
2018-12-03T20:18:26.699Z,10.40
2018-12-03T20:21:00.198Z,10.30
2018-12-03T20:23:34.949Z,10.30
2018-12-03T20:26:14.571Z,10.40
2018-12-03T20:28:53.021Z,10.40
2018-12-03T20:32:32.540Z,10.40
2018-12-03T20:35:24.252Z,10.30
2018-12-03T20:38:01.430Z,10.30
2018-12-03T20:40:40.360Z,10.20
2018-12-03T20:43:15.000Z,10.20
2018-12-03T20:46:09.347Z,10.30
2018-12-03T20:49:48.984Z,10.30
2018-12-03T20:52:22.805Z,10.30
2018-12-03T20:54:55.258Z,10.30
2018-12-03T20:57:25.536Z,10.20
2018-12-03T20:59:55.303Z,10.10
2018-12-03T21:02:25.686Z,10.10
2018-12-03T21:04:55.780Z,10.20
2018-12-03T21:07:25.432Z,10.20
2018-12-03T21:09:55.313Z,10.20
2018-12-03T21:12:25.015Z,10.30
2018-12-03T21:14:54.669Z,10.20
2018-12-03T21:17:24.415Z,10.20
2018-12-03T21:19:58.183Z,10.20
2018-12-03T21:22:27.943Z,10.30
2018-12-03T21:24:57.546Z,10.30
2018-12-03T21:27:27.505Z,10.30
2018-12-03T21:29:57.242Z,10.30
2018-12-03T21:32:27.216Z,10.30
2018-12-03T21:34:57.201Z,10.30
2018-12-03T21:37:27.090Z,10.20
2018-12-03T21:39:56.527Z,10.10
2018-12-03T21:42:27.011Z,10.10
2018-12-03T21:44:56.938Z,10.10
2018-12-03T21:47:26.353Z,10.00
2018-12-03T21:49:55.877Z,10.00
2018-12-03T21:52:25.339Z,10.00
2018-12-03T21:54:54.791Z,9.90
2018-12-03T21:57:24.278Z,10.00
2018-12-03T21:59:56.884Z,9.90
2018-12-03T22:02:25.417Z,9.90
2018-12-03T22:04:54.947Z,10.00
2018-12-03T22:07:24.251Z,10.00
2018-12-03T22:09:53.927Z,10.00
2018-12-03T22:12:23.223Z,10.10
2018-12-03T22:14:52.428Z,9.90
2018-12-03T22:17:21.708Z,10.00
2018-12-03T22:19:50.984Z,10.00
2018-12-03T22:22:20.084Z,10.00
2018-12-03T22:24:49.454Z,10.00
2018-12-03T22:27:18.261Z,10.00
2018-12-03T22:29:46.925Z,10.00
2018-12-03T22:32:15.701Z,10.10
2018-12-03T22:34:44.665Z,10.10
2018-12-03T22:37:13.504Z,10.10
2018-12-03T22:39:46.369Z,10.20
2018-12-03T22:42:12.919Z,10.10
2018-12-03T22:44:41.656Z,10.20
2018-12-03T22:47:10.150Z,10.20
2018-12-03T22:49:38.739Z,10.20
2018-12-03T22:52:07.495Z,10.20
2018-12-03T22:54:36.253Z,10.20
2018-12-03T22:57:04.873Z,10.20
2018-12-03T22:59:33.481Z,10.30
2018-12-03T23:02:02.302Z,10.30
2018-12-03T23:04:33.130Z,10.20
2018-12-03T23:07:01.721Z,10.20
2018-12-03T23:09:30.200Z,10.30
2018-12-03T23:11:58.832Z,10.30
2018-12-03T23:14:27.570Z,10.30
2018-12-03T23:16:56.102Z,10.20
2018-12-03T23:19:24.842Z,10.20
2018-12-03T23:21:53.454Z,10.30
2018-12-03T23:24:22.011Z,10.30
2018-12-03T23:26:50.845Z,10.30
2018-12-03T23:29:19.350Z,10.20
2018-12-03T23:31:47.997Z,10.20
2018-12-03T23:34:16.555Z,10.20
2018-12-03T23:36:45.264Z,10.20
2018-12-03T23:39:13.899Z,10.20
2018-12-03T23:41:42.583Z,10.20
2018-12-03T23:44:11.265Z,10.20
2018-12-03T23:46:39.938Z,10.20
2018-12-03T23:49:08.519Z,10.20
2018-12-03T23:51:37.102Z,10.10
2018-12-03T23:54:05.897Z,10.20
2018-12-03T23:56:34.703Z,10.20
2018-12-03T23:59:03.570Z,10.20
